الصفحة الرئيسية
METAR-TAF:

METAR-TAF

مطار :

مطار بتروبافل

بتروبافل, كازاخستان

دائرة عرض: 54-46-28N, خط طول: 069-11-06E, ارتفاع: 139 متر

مراقبة الطقس الحالي

تاريخ ووقت الإصدار 8ساعات و 24 دقيقة قبل الساعة 15:00UTC
ريح 8 عقدة من الجنوب الغربي
درجة الحرارة 11°درجة مئوية
الرطوبة 76%
ضغط 1020 hPa
الرؤية 10 كم أو أكثر
الغيوم لا تقل 1500 م ولا وجود لمزنة ركامية السحاب الأسود

METAR: UACP 241500Z 23004MPS CAVOK 11/07 Q1020 R23/0/0060 NOSIG RMK QFE752/1003

زمن: 05:24 (23:24 UTC)

توقعات

تاريخ ووقت الإصدار 12ساعات و 25 دقيقة قبل الساعة 10:59UTC
التوقعات صالحة من24 الساعة 12 UTC إلى 24 الساعة 21 UTC
ريح 10 عقدة من الغرب
الرؤية 10 كم أو أكثر
غيوم متفرقة على ارتفاع 3000 قدم

TAF: UACP 241059Z 2412/2421 26005MPS 9999 SCT030

أرصاد الطقس والتوقعات من أكثر من 4000 مطار (تقارير الطقس للمطار METAR والتنبؤ بالطقس بالمطارTAF).

المحطات المتاحة هي النقط الصفراء والحمراء على الخريطة.

حرك المؤشر فوق النقطة لمعرفة اسم المحطة.

ثم انقر لمعرفة أرصاد وتوقعات الطقس.

لتغيير الخارطة: اضغط على الأزرار الخضراء مع رمز الصليب الأسود للتكبير. على الزر الأخضر مع شرطة للتصغير، أو على الأسهم الخضراء للخرائط المجاورة.


METAR-TAF: